Time;durP1;ratioP1;P1;durP2;ratioP2;P2;SDS_P1;SDS_P2;PMS_P1;PMS_P2;Temp;Humidity;BMP_temperature;BMP_pressure;BME280_temperature;BME280_humidity;BME280_pressure;Samples;Min_cycle;Max_cycle;Signal;HPM_P1;HPM_P2
2022/03/04 00:02:14;;;;;;;9.20;7.13;;;;;;;;;;5032853;28;20286;-70
2022/03/04 00:04:45;;;;;;;10.57;7.20;;;;;;;;;;5018996;28;20208;-68
2022/03/04 00:07:13;;;;;;;9.90;6.43;;;;;;;;;;5025640;28;20274;-68
2022/03/04 00:09:42;;;;;;;10.17;6.53;;;;;;;;;;5038754;28;20243;-67
2022/03/04 00:12:10;;;;;;;8.50;7.07;;;;;;;;;;5038303;28;20262;-68
2022/03/04 00:14:38;;;;;;;10.20;7.37;;;;;;;;;;5038534;28;20667;-69
2022/03/04 00:17:06;;;;;;;9.03;6.23;;;;;;;;;;5038405;28;20667;-70
2022/03/04 00:19:34;;;;;;;8.00;6.17;;;;;;;;;;5037966;28;20230;-68
2022/03/04 00:22:02;;;;;;;12.07;6.83;;;;;;;;;;5025279;28;20270;-69
2022/03/04 00:24:30;;;;;;;10.63;7.07;;;;;;;;;;5038493;28;20294;-68
2022/03/04 00:27:00;;;;;;;8.83;6.13;;;;;;;;;;5037975;28;20745;-69
2022/03/04 00:29:28;;;;;;;9.60;6.37;;;;;;;;;;5038492;28;20246;-67
2022/03/04 00:31:56;;;;;;;8.57;6.20;;;;;;;;;;5038119;28;20287;-69
2022/03/04 00:34:25;;;;;;;13.83;7.20;;;;;;;;;;5037968;28;20207;-67
2022/03/04 00:36:53;;;;;;;6.77;6.07;;;;;;;;;;5038194;28;20314;-68
2022/03/04 00:39:23;;;;;;;11.73;6.93;;;;;;;;;;5038056;28;20734;-69
2022/03/04 00:41:51;;;;;;;8.13;6.50;;;;;;;;;;5037834;28;20255;-68
2022/03/04 00:44:20;;;;;;;9.30;6.53;;;;;;;;;;5038048;28;20243;-68
2022/03/04 00:46:48;;;;;;;10.20;6.77;;;;;;;;;;5037994;28;20582;-68
2022/03/04 00:49:16;;;;;;;12.00;6.50;;;;;;;;;;5037472;28;20199;-69
2022/03/04 00:51:44;;;;;;;9.97;7.20;;;;;;;;;;5025674;28;20644;-69
2022/03/04 00:54:13;;;;;;;8.57;6.60;;;;;;;;;;5017790;28;20572;-69
2022/03/04 00:56:41;;;;;;;11.10;6.90;;;;;;;;;;5018044;28;20661;-69
2022/03/04 00:59:09;;;;;;;10.97;7.73;;;;;;;;;;5017923;28;20260;-69
2022/03/04 01:01:38;;;;;;;12.60;7.37;;;;;;;;;;5027409;28;20315;-69
2022/03/04 01:04:06;;;;;;;12.47;6.87;;;;;;;;;;5018072;28;20698;-70
2022/03/04 01:06:35;;;;;;;10.10;6.33;;;;;;;;;;5017825;28;20318;-69
2022/03/04 01:09:03;;;;;;;12.70;7.50;;;;;;;;;;5018056;28;20566;-69
2022/03/04 01:11:31;;;;;;;9.47;7.03;;;;;;;;;;5017745;28;20292;-69
2022/03/04 01:13:59;;;;;;;9.43;7.07;;;;;;;;;;5017533;28;20276;-69
2022/03/04 01:16:27;;;;;;;10.40;8.03;;;;;;;;;;5024046;28;20289;-69
2022/03/04 01:18:57;;;;;;;11.27;7.00;;;;;;;;;;5037289;28;20211;-69
2022/03/04 01:21:25;;;;;;;9.40;7.40;;;;;;;;;;5028205;28;20270;-69
2022/03/04 01:23:53;;;;;;;12.87;7.17;;;;;;;;;;5017152;28;20283;-69
2022/03/04 01:26:21;;;;;;;12.57;7.83;;;;;;;;;;5030053;28;20265;-69
2022/03/04 01:28:49;;;;;;;14.27;7.20;;;;;;;;;;5020629;28;20235;-69
2022/03/04 01:31:17;;;;;;;9.93;6.57;;;;;;;;;;5017564;28;20635;-69
2022/03/04 01:33:45;;;;;;;10.60;7.00;;;;;;;;;;5017612;28;20208;-69
2022/03/04 01:36:15;;;;;;;11.73;7.57;;;;;;;;;;5017597;28;20316;-69
2022/03/04 01:38:43;;;;;;;11.30;7.57;;;;;;;;;;5017534;28;20238;-68
2022/03/04 01:41:11;;;;;;;14.60;8.50;;;;;;;;;;5017520;28;20242;-68
2022/03/04 01:43:39;;;;;;;12.17;8.77;;;;;;;;;;5017564;28;20288;-68
2022/03/04 01:46:14;;;;;;;10.93;7.13;;;;;;;;;;5017787;28;20315;-68
2022/03/04 01:48:42;;;;;;;10.97;7.27;;;;;;;;;;5024713;28;20203;-68
2022/03/04 01:51:11;;;;;;;10.17;7.33;;;;;;;;;;5024547;28;20294;-67
2022/03/04 01:53:40;;;;;;;12.30;7.33;;;;;;;;;;5037221;28;20290;-69
2022/03/04 01:56:09;;;;;;;10.47;6.87;;;;;;;;;;5037088;28;20660;-69
2022/03/04 01:58:37;;;;;;;11.53;7.50;;;;;;;;;;5037285;28;20239;-69
2022/03/04 02:01:05;;;;;;;8.73;7.80;;;;;;;;;;5036866;28;20239;-67
2022/03/04 02:03:34;;;;;;;11.80;6.73;;;;;;;;;;5022019;28;20212;-70
2022/03/04 02:06:02;;;;;;;10.70;7.07;;;;;;;;;;5016996;28;20707;-69
2022/03/04 02:08:30;;;;;;;11.30;7.50;;;;;;;;;;5017240;28;20239;-68
2022/03/04 02:11:00;;;;;;;12.03;8.20;;;;;;;;;;5017283;28;20688;-70
2022/03/04 02:13:28;;;;;;;9.57;7.27;;;;;;;;;;5017195;28;20235;-70
2022/03/04 02:15:56;;;;;;;12.90;7.17;;;;;;;;;;5019640;28;20296;-69
2022/03/04 02:18:24;;;;;;;10.57;7.27;;;;;;;;;;5036847;28;20246;-70
2022/03/04 02:20:52;;;;;;;14.57;7.73;;;;;;;;;;5033788;28;20288;-70
2022/03/04 02:23:22;;;;;;;15.17;8.50;;;;;;;;;;5030740;28;20224;-70
2022/03/04 02:25:50;;;;;;;9.90;7.27;;;;;;;;;;5025015;28;20291;-70
2022/03/04 02:28:19;;;;;;;10.73;8.23;;;;;;;;;;5030231;28;20208;-69
2022/03/04 02:30:47;;;;;;;13.17;8.50;;;;;;;;;;5016836;28;20232;-69
2022/03/04 02:33:15;;;;;;;10.80;7.80;;;;;;;;;;5017084;28;20232;-70
2022/03/04 02:35:43;;;;;;;13.33;8.77;;;;;;;;;;5020418;28;20282;-69
2022/03/04 02:38:11;;;;;;;12.10;8.23;;;;;;;;;;5020766;28;20295;-69
2022/03/04 02:40:41;;;;;;;12.63;8.33;;;;;;;;;;5020358;28;20701;-69
2022/03/04 02:43:09;;;;;;;12.90;8.97;;;;;;;;;;5020545;28;20779;-69
2022/03/04 02:45:37;;;;;;;12.23;8.50;;;;;;;;;;5020371;28;20750;-69
2022/03/04 02:48:05;;;;;;;11.30;7.80;;;;;;;;;;5020418;28;20211;-70
2022/03/04 02:50:33;;;;;;;11.53;7.93;;;;;;;;;;5033654;28;20615;-70
2022/03/04 02:53:01;;;;;;;13.60;8.23;;;;;;;;;;5020149;28;20365;-69
2022/03/04 02:55:29;;;;;;;9.37;7.47;;;;;;;;;;5020174;28;20228;-69
2022/03/04 02:57:58;;;;;;;10.20;8.23;;;;;;;;;;5020661;28;20240;-69
2022/03/04 03:00:26;;;;;;;11.50;7.90;;;;;;;;;;5020357;28;20291;-69
2022/03/04 03:02:54;;;;;;;13.53;8.00;;;;;;;;;;5028949;28;20281;-69
2022/03/04 03:05:23;;;;;;;10.33;7.83;;;;;;;;;;5023923;28;20224;-70
2022/03/04 03:07:51;;;;;;;11.00;7.63;;;;;;;;;;5019854;28;20719;-70
2022/03/04 03:10:19;;;;;;;12.47;8.00;;;;;;;;;;5020114;28;20235;-70
2022/03/04 03:12:47;;;;;;;13.20;7.80;;;;;;;;;;5020095;28;20264;-69
2022/03/04 03:15:16;;;;;;;9.73;7.47;;;;;;;;;;5020094;28;20235;-68
2022/03/04 03:17:44;;;;;;;9.90;7.57;;;;;;;;;;5037031;28;20267;-68
2022/03/04 03:20:12;;;;;;;10.03;7.47;;;;;;;;;;5039023;28;20719;-69
2022/03/04 03:22:40;;;;;;;11.13;8.10;;;;;;;;;;5020539;28;20236;-70
2022/03/04 03:25:09;;;;;;;11.77;8.30;;;;;;;;;;5021838;28;20580;-70
2022/03/04 03:27:37;;;;;;;11.20;7.60;;;;;;;;;;5033438;28;20262;-68
2022/03/04 03:30:05;;;;;;;12.40;7.73;;;;;;;;;;5019870;28;20239;-68
2022/03/04 03:32:35;;;;;;;11.00;7.30;;;;;;;;;;5026633;28;20287;-69
2022/03/04 03:35:03;;;;;;;11.47;7.53;;;;;;;;;;5038974;28;20578;-69
2022/03/04 03:37:31;;;;;;;10.93;8.23;;;;;;;;;;5039332;28;20254;-69
2022/03/04 03:39:59;;;;;;;11.13;7.20;;;;;;;;;;5039199;28;20298;-69
2022/03/04 03:42:27;;;;;;;11.80;8.13;;;;;;;;;;5039019;28;20402;-70
2022/03/04 03:44:55;;;;;;;17.30;8.70;;;;;;;;;;5039229;28;20250;-70
2022/03/04 03:47:23;;;;;;;9.93;7.50;;;;;;;;;;5038964;28;20292;-70
2022/03/04 03:49:52;;;;;;;11.13;7.13;;;;;;;;;;5038783;28;20230;-68
2022/03/04 03:52:20;;;;;;;11.80;7.83;;;;;;;;;;5021109;28;20212;-69
2022/03/04 03:54:48;;;;;;;10.97;7.67;;;;;;;;;;5019396;28;20291;-68
2022/03/04 03:57:16;;;;;;;12.33;9.13;;;;;;;;;;5022065;28;20665;-69
2022/03/04 03:59:44;;;;;;;12.10;7.97;;;;;;;;;;5028431;28;20575;-68
2022/03/04 04:02:12;;;;;;;12.63;7.80;;;;;;;;;;5029226;28;20695;-70
2022/03/04 04:04:41;;;;;;;12.47;7.63;;;;;;;;;;5018926;28;20251;-70
2022/03/04 04:07:11;;;;;;;9.67;7.00;;;;;;;;;;5018756;28;20224;-70
2022/03/04 04:09:40;;;;;;;13.70;8.60;;;;;;;;;;5019061;28;20235;-70
2022/03/04 04:12:08;;;;;;;11.57;8.67;;;;;;;;;;5018683;28;20240;-70
2022/03/04 04:14:36;;;;;;;10.97;8.30;;;;;;;;;;5018763;28;20730;-69
2022/03/04 04:17:05;;;;;;;15.10;8.20;;;;;;;;;;5030448;28;20292;-69
2022/03/04 04:19:33;;;;;;;12.43;7.67;;;;;;;;;;5037925;28;20272;-69
2022/03/04 04:22:01;;;;;;;11.43;8.33;;;;;;;;;;5019994;28;20235;-69
2022/03/04 04:24:30;;;;;;;11.77;9.17;;;;;;;;;;5018722;28;20231;-70
2022/03/04 04:26:58;;;;;;;12.00;8.23;;;;;;;;;;5036130;28;20310;-69
2022/03/04 04:29:26;;;;;;;10.93;8.03;;;;;;;;;;5025708;28;20254;-68
2022/03/04 04:31:54;;;;;;;13.23;8.20;;;;;;;;;;5018717;28;20239;-70
2022/03/04 04:34:22;;;;;;;13.20;8.80;;;;;;;;;;5018442;28;20322;-70
2022/03/04 04:36:50;;;;;;;14.93;8.97;;;;;;;;;;5018485;28;20264;-70
2022/03/04 04:39:18;;;;;;;12.40;9.63;;;;;;;;;;5018538;28;20239;-70
2022/03/04 04:41:48;;;;;;;18.37;9.83;;;;;;;;;;5018604;28;20272;-70
2022/03/04 04:44:16;;;;;;;15.23;9.50;;;;;;;;;;5028522;28;20298;-69
2022/03/04 04:46:44;;;;;;;15.93;10.13;;;;;;;;;;5037956;28;20311;-69
2022/03/04 04:49:12;;;;;;;15.87;10.07;;;;;;;;;;5037341;28;20226;-69
2022/03/04 04:51:40;;;;;;;15.67;10.17;;;;;;;;;;5037569;28;20250;-69
2022/03/04 04:54:08;;;;;;;16.40;10.87;;;;;;;;;;5037791;28;20283;-69
2022/03/04 04:56:36;;;;;;;20.00;10.23;;;;;;;;;;5037377;28;20306;-70
2022/03/04 04:59:06;;;;;;;13.00;10.43;;;;;;;;;;5037265;28;20294;-70
2022/03/04 05:01:33;;;;;;;19.73;11.77;;;;;;;;;;5036839;28;20735;-70
2022/03/04 05:04:02;;;;;;;18.27;10.50;;;;;;;;;;5037105;28;20694;-70
2022/03/04 05:06:30;;;;;;;15.57;10.47;;;;;;;;;;5037267;28;20261;-69
2022/03/04 05:08:59;;;;;;;19.87;10.57;;;;;;;;;;5037405;28;20568;-70
2022/03/04 05:11:27;;;;;;;18.40;11.17;;;;;;;;;;5037633;28;20238;-70
2022/03/04 05:13:55;;;;;;;15.27;10.47;;;;;;;;;;5037589;28;20318;-70
2022/03/04 05:16:24;;;;;;;15.23;10.53;;;;;;;;;;5037527;28;20250;-69
2022/03/04 05:18:52;;;;;;;16.17;11.00;;;;;;;;;;5037588;28;20200;-70
2022/03/04 05:21:20;;;;;;;14.77;10.63;;;;;;;;;;5025371;28;20290;-70
2022/03/04 05:24:01;;;;;;;18.73;11.53;;;;;;;;;;5027895;28;20314;-70
2022/03/04 05:26:30;;;;;;;18.57;11.97;;;;;;;;;;5025678;28;20294;-70
2022/03/04 05:28:58;;;;;;;19.33;12.00;;;;;;;;;;5026283;28;20248;-70
2022/03/04 05:31:28;;;;;;;19.53;10.63;;;;;;;;;;5027768;28;20239;-70
2022/03/04 05:33:56;;;;;;;18.70;11.90;;;;;;;;;;5026987;28;20263;-70
2022/03/04 05:36:24;;;;;;;15.93;11.97;;;;;;;;;;5029274;28;20223;-70
2022/03/04 05:38:53;;;;;;;18.23;11.13;;;;;;;;;;5026147;28;20236;-70
2022/03/04 05:41:21;;;;;;;20.13;11.40;;;;;;;;;;5027382;28;20291;-70
2022/03/04 05:43:49;;;;;;;20.00;12.50;;;;;;;;;;5029244;28;20259;-70
2022/03/04 05:46:18;;;;;;;19.80;11.30;;;;;;;;;;5034345;28;20703;-69
2022/03/04 05:48:48;;;;;;;22.63;12.30;;;;;;;;;;5030681;28;20226;-69
2022/03/04 05:51:17;;;;;;;19.67;11.83;;;;;;;;;;5030919;28;20259;-69
2022/03/04 05:53:45;;;;;;;20.33;11.67;;;;;;;;;;5030692;28;20283;-69
2022/03/04 05:56:13;;;;;;;19.93;11.63;;;;;;;;;;5035089;28;20630;-69
2022/03/04 05:58:42;;;;;;;17.97;12.00;;;;;;;;;;5032601;28;20330;-69
2022/03/04 06:01:10;;;;;;;19.30;11.93;;;;;;;;;;5032880;28;20223;-69
2022/03/04 06:03:39;;;;;;;20.53;12.70;;;;;;;;;;5029469;28;20230;-69
2022/03/04 06:06:10;;;;;;;19.77;11.77;;;;;;;;;;5027495;28;20306;-69
2022/03/04 06:08:39;;;;;;;22.33;12.37;;;;;;;;;;5029915;28;20282;-69
2022/03/04 06:11:08;;;;;;;17.87;11.47;;;;;;;;;;5033165;28;20261;-69
2022/03/04 06:13:36;;;;;;;19.63;12.17;;;;;;;;;;5029200;28;20315;-70
2022/03/04 06:16:04;;;;;;;20.57;11.80;;;;;;;;;;5034970;28;20255;-69
2022/03/04 06:18:32;;;;;;;23.07;11.47;;;;;;;;;;5029588;28;20635;-70
2022/03/04 06:21:01;;;;;;;16.40;11.80;;;;;;;;;;5029634;28;20942;-69
2022/03/04 06:23:31;;;;;;;20.73;12.23;;;;;;;;;;5032499;28;20225;-68
2022/03/04 06:25:59;;;;;;;20.17;12.03;;;;;;;;;;5030948;28;20220;-69
2022/03/04 06:28:28;;;;;;;20.47;11.73;;;;;;;;;;5031999;28;20254;-69
2022/03/04 06:30:56;;;;;;;18.97;12.37;;;;;;;;;;5031516;28;20215;-70
2022/03/04 06:33:31;;;;;;;20.67;11.20;;;;;;;;;;5032817;28;20235;-69
2022/03/04 06:36:03;;;;;;;20.10;12.13;;;;;;;;;;5037167;28;20215;-68
2022/03/04 06:38:34;;;;;;;22.10;11.93;;;;;;;;;;5040209;28;20207;-69
2022/03/04 06:41:03;;;;;;;23.53;12.07;;;;;;;;;;5040242;28;20204;-68
2022/03/04 06:43:31;;;;;;;23.33;12.13;;;;;;;;;;5024670;28;20239;-68
2022/03/04 06:46:00;;;;;;;21.10;11.90;;;;;;;;;;5020613;28;20295;-70
2022/03/04 06:48:28;;;;;;;21.33;12.00;;;;;;;;;;5020480;28;20213;-64
2022/03/04 06:50:56;;;;;;;19.80;11.83;;;;;;;;;;5020100;28;20208;-64
2022/03/04 06:53:25;;;;;;;19.47;11.27;;;;;;;;;;5020331;28;20236;-64
2022/03/04 06:55:54;;;;;;;17.57;11.27;;;;;;;;;;5020179;28;20251;-64
2022/03/04 06:58:22;;;;;;;20.00;12.17;;;;;;;;;;5020579;28;20243;-64
2022/03/04 07:00:50;;;;;;;22.57;12.27;;;;;;;;;;5023359;28;20246;-64
2022/03/04 07:03:19;;;;;;;22.30;12.50;;;;;;;;;;5036492;28;20563;-64
2022/03/04 07:05:48;;;;;;;20.90;12.07;;;;;;;;;;5019727;28;20239;-64
2022/03/04 07:08:16;;;;;;;19.00;12.27;;;;;;;;;;5020173;28;20609;-64
2022/03/04 07:10:44;;;;;;;18.90;11.83;;;;;;;;;;5019774;28;20622;-63
2022/03/04 07:13:13;;;;;;;18.73;11.77;;;;;;;;;;5019850;28;20264;-63
2022/03/04 07:15:42;;;;;;;18.10;11.03;;;;;;;;;;5029546;28;20255;-64
2022/03/04 07:18:10;;;;;;;20.10;11.37;;;;;;;;;;5038074;28;20204;-64
2022/03/04 07:20:39;;;;;;;20.47;11.97;;;;;;;;;;5036928;28;20239;-64
2022/03/04 07:23:09;;;;;;;19.83;12.33;;;;;;;;;;5034105;28;21067;-64
2022/03/04 07:25:37;;;;;;;23.90;13.00;;;;;;;;;;5037181;28;20254;-64
2022/03/04 07:28:05;;;;;;;21.13;11.97;;;;;;;;;;5033578;28;20207;-63
2022/03/04 07:30:35;;;;;;;22.57;12.20;;;;;;;;;;5038097;28;20203;-64
2022/03/04 07:33:04;;;;;;;20.00;11.30;;;;;;;;;;5019982;28;20526;-65
2022/03/04 07:35:32;;;;;;;17.10;10.77;;;;;;;;;;5033901;28;20500;-64
2022/03/04 07:38:00;;;;;;;21.77;12.40;;;;;;;;;;5038874;28;20477;-64
2022/03/04 07:40:28;;;;;;;20.50;11.57;;;;;;;;;;5036221;28;20480;-64
2022/03/04 07:42:56;;;;;;;20.67;11.80;;;;;;;;;;5019025;28;20826;-69
2022/03/04 07:45:24;;;;;;;22.03;13.03;;;;;;;;;;5019638;28;20274;-69
2022/03/04 07:47:54;;;;;;;22.87;12.97;;;;;;;;;;5019144;28;20680;-69
2022/03/04 07:50:22;;;;;;;20.53;12.97;;;;;;;;;;5018753;28;20291;-69
2022/03/04 07:52:50;;;;;;;23.70;12.37;;;;;;;;;;5018760;28;20243;-69
2022/03/04 07:55:18;;;;;;;27.83;12.47;;;;;;;;;;5018817;28;20288;-69
2022/03/04 07:57:46;;;;;;;22.03;13.30;;;;;;;;;;5018931;28;20618;-69
2022/03/04 08:00:17;;;;;;;20.30;12.07;;;;;;;;;;5018592;28;20239;-69
2022/03/04 08:02:46;;;;;;;24.50;13.43;;;;;;;;;;5037587;28;20211;-69
2022/03/04 08:05:16;;;;;;;22.37;13.00;;;;;;;;;;5038226;28;20326;-69
2022/03/04 08:07:43;;;;;;;25.53;13.43;;;;;;;;;;5037643;28;20199;-69
2022/03/04 08:10:12;;;;;;;22.03;12.83;;;;;;;;;;5025157;28;20258;-69
2022/03/04 08:12:40;;;;;;;19.60;12.87;;;;;;;;;;5018269;28;20665;-69
2022/03/04 08:15:09;;;;;;;26.60;13.80;;;;;;;;;;5018528;28;20287;-69
2022/03/04 08:17:37;;;;;;;25.60;13.13;;;;;;;;;;5026786;28;21071;-69
2022/03/04 08:20:06;;;;;;;24.37;13.67;;;;;;;;;;5035905;28;20667;-69
2022/03/04 08:22:35;;;;;;;23.13;14.37;;;;;;;;;;5038419;28;20315;-69
2022/03/04 08:25:04;;;;;;;26.63;14.27;;;;;;;;;;5036144;28;20315;-67
2022/03/04 08:27:32;;;;;;;24.53;13.77;;;;;;;;;;5018691;28;20223;-68
2022/03/04 08:30:00;;;;;;;23.80;14.23;;;;;;;;;;5018619;28;20250;-70
2022/03/04 08:32:28;;;;;;;22.30;13.03;;;;;;;;;;5028598;28;20263;-70
2022/03/04 08:34:59;;;;;;;22.60;13.23;;;;;;;;;;5034658;28;20200;-69
2022/03/04 08:37:27;;;;;;;25.90;14.20;;;;;;;;;;5018263;28;20211;-69
2022/03/04 08:39:57;;;;;;;26.20;13.13;;;;;;;;;;5018267;28;20287;-69
2022/03/04 08:42:25;;;;;;;27.53;14.40;;;;;;;;;;5018123;28;20311;-71
2022/03/04 08:44:54;;;;;;;26.00;13.90;;;;;;;;;;5017763;28;20247;-70
2022/03/04 08:47:22;;;;;;;24.30;13.93;;;;;;;;;;5033928;28;20211;-70
2022/03/04 08:49:50;;;;;;;26.70;12.90;;;;;;;;;;5037146;28;20742;-69
2022/03/04 08:52:18;;;;;;;26.47;14.13;;;;;;;;;;5035468;28;20683;-69
2022/03/04 08:54:46;;;;;;;20.97;12.20;;;;;;;;;;5033135;28;20227;-69
2022/03/04 08:57:15;;;;;;;20.97;12.13;;;;;;;;;;5034186;28;20331;-69
2022/03/04 08:59:43;;;;;;;21.53;13.23;;;;;;;;;;5036606;28;20227;-70
2022/03/04 09:02:11;;;;;;;23.07;13.73;;;;;;;;;;5036479;28;20242;-70
2022/03/04 09:04:40;;;;;;;24.40;14.07;;;;;;;;;;5022211;28;20239;-70
2022/03/04 09:07:08;;;;;;;24.33;13.30;;;;;;;;;;5017818;28;20298;-69
2022/03/04 09:09:38;;;;;;;22.07;13.60;;;;;;;;;;5021298;28;20231;-70
2022/03/04 09:12:07;;;;;;;22.77;13.33;;;;;;;;;;5037117;28;20239;-70
2022/03/04 09:14:36;;;;;;;22.37;13.33;;;;;;;;;;5037189;28;20203;-71
2022/03/04 09:17:05;;;;;;;25.53;12.87;;;;;;;;;;5036845;28;20270;-71
2022/03/04 09:19:34;;;;;;;25.53;13.13;;;;;;;;;;5031644;28;20239;-69
2022/03/04 09:22:22;;;;;;;27.25;17.02;;;;;;;;;;5036700;28;20444;-67
2022/03/04 09:24:50;;;;;;;25.93;14.27;;;;;;;;;;5036852;28;20631;-68
2022/03/04 09:27:18;;;;;;;24.50;14.57;;;;;;;;;;5032817;28;20484;-68
2022/03/04 09:29:47;;;;;;;24.10;14.67;;;;;;;;;;5037003;28;20254;-69
2022/03/04 09:32:15;;;;;;;26.23;14.40;;;;;;;;;;5036947;28;20288;-68
2022/03/04 09:34:43;;;;;;;25.10;14.67;;;;;;;;;;5036887;28;20235;-68
2022/03/04 09:37:12;;;;;;;26.43;14.67;;;;;;;;;;5036477;28;20254;-68
2022/03/04 09:39:40;;;;;;;27.10;14.40;;;;;;;;;;5030684;28;20279;-67
2022/03/04 09:42:08;;;;;;;25.50;14.20;;;;;;;;;;5033887;28;20227;-68
2022/03/04 09:44:36;;;;;;;25.70;14.83;;;;;;;;;;5037715;28;20219;-67
2022/03/04 09:47:06;;;;;;;30.40;14.97;;;;;;;;;;5038310;28;20226;-67
2022/03/04 09:49:35;;;;;;;26.57;15.17;;;;;;;;;;5040243;28;20195;-67
2022/03/04 09:52:03;;;;;;;25.43;14.40;;;;;;;;;;5037782;28;20200;-67
2022/03/04 09:54:31;;;;;;;25.53;14.23;;;;;;;;;;5024206;28;20342;-67
2022/03/04 09:57:00;;;;;;;29.53;15.57;;;;;;;;;;5021277;28;20263;-66
2022/03/04 09:59:28;;;;;;;28.27;15.63;;;;;;;;;;5025006;28;20638;-67
2022/03/04 10:01:57;;;;;;;22.03;14.47;;;;;;;;;;5040609;28;20204;-67
2022/03/04 10:04:27;;;;;;;25.87;15.07;;;;;;;;;;5037593;28;20206;-67
2022/03/04 10:06:55;;;;;;;29.37;15.33;;;;;;;;;;5038612;28;20277;-67
2022/03/04 10:09:36;;;;;;;24.57;16.07;;;;;;;;;;5040558;28;20265;-67
2022/03/04 10:12:07;;;;;;;29.17;15.23;;;;;;;;;;5040493;28;20238;-68
2022/03/04 10:14:35;;;;;;;27.00;14.97;;;;;;;;;;5040847;28;20295;-67
2022/03/04 10:17:05;;;;;;;28.23;15.80;;;;;;;;;;5040635;28;20254;-68
2022/03/04 10:19:37;;;;;;;26.00;16.60;;;;;;;;;;5035318;28;20211;-68
2022/03/04 10:22:06;;;;;;;27.60;15.60;;;;;;;;;;5038775;28;20244;-68
2022/03/04 10:24:35;;;;;;;31.37;16.27;;;;;;;;;;5037377;28;20199;-68
2022/03/04 10:27:04;;;;;;;28.40;17.50;;;;;;;;;;5037289;28;20660;-68
2022/03/04 10:29:37;;;;;;;35.47;18.20;;;;;;;;;;5037159;28;20200;-67
2022/03/04 10:32:14;;;;;;;26.33;16.00;;;;;;;;;;5037232;28;20198;-67
2022/03/04 10:34:55;;;;;;;29.47;16.97;;;;;;;;;;5037710;28;20286;-67
2022/03/04 10:37:23;;;;;;;27.73;16.43;;;;;;;;;;5040291;28;20206;-67
2022/03/04 10:39:58;;;;;;;31.47;15.43;;;;;;;;;;5039976;28;20207;-67
2022/03/04 10:42:39;;;;;;;27.97;15.77;;;;;;;;;;5040456;28;20289;-67
2022/03/04 10:45:08;;;;;;;31.17;17.20;;;;;;;;;;5040094;28;20295;-67
2022/03/04 10:47:44;;;;;;;28.47;16.10;;;;;;;;;;5039075;28;20662;-68
2022/03/04 10:50:14;;;;;;;30.30;15.97;;;;;;;;;;5020110;28;20211;-67
2022/03/04 10:52:49;;;;;;;28.07;15.30;;;;;;;;;;5020086;28;20219;-67
2022/03/04 10:55:27;;;;;;;27.07;14.93;;;;;;;;;;5019882;28;20255;-68
2022/03/04 10:57:55;;;;;;;27.93;16.03;;;;;;;;;;5019784;28;20210;-67
2022/03/04 11:00:24;;;;;;;27.47;15.93;;;;;;;;;;5022436;28;20242;-67
2022/03/04 11:02:52;;;;;;;25.63;14.77;;;;;;;;;;5039202;28;20290;-67
2022/03/04 11:05:23;;;;;;;25.50;15.40;;;;;;;;;;5039617;28;20234;-67
2022/03/04 11:07:52;;;;;;;25.53;15.77;;;;;;;;;;5037746;28;20315;-67
2022/03/04 11:10:20;;;;;;;29.03;16.70;;;;;;;;;;5037604;28;20642;-67
2022/03/04 11:12:52;;;;;;;26.23;15.90;;;;;;;;;;5037300;28;20285;-67
2022/03/04 11:15:22;;;;;;;24.63;15.00;;;;;;;;;;5035137;28;20215;-67
2022/03/04 11:17:53;;;;;;;29.77;15.50;;;;;;;;;;5036758;28;20271;-68
2022/03/04 11:20:22;;;;;;;28.03;15.67;;;;;;;;;;5037316;28;20615;-67
2022/03/04 11:22:53;;;;;;;27.57;15.70;;;;;;;;;;5039613;28;20246;-67
2022/03/04 11:25:22;;;;;;;33.00;15.63;;;;;;;;;;5038784;28;20259;-68
2022/03/04 11:27:51;;;;;;;31.13;15.87;;;;;;;;;;5030233;28;20267;-66
2022/03/04 11:30:33;;;;;;;25.63;14.77;;;;;;;;;;5019149;28;20647;-66
2022/03/04 11:33:05;;;;;;;24.67;15.73;;;;;;;;;;5019635;28;20219;-66
2022/03/04 11:35:51;;;;;;;26.83;13.97;;;;;;;;;;5018793;28;20647;-66
2022/03/04 11:38:34;;;;;;;22.87;13.37;;;;;;;;;;5006136;28;20660;-66
2022/03/04 11:41:03;;;;;;;25.80;13.80;;;;;;;;;;5018607;28;20291;-66
2022/03/04 11:43:52;;;;;;;27.40;14.80;;;;;;;;;;5026150;28;20215;-67
2022/03/04 11:46:20;;;;;;;20.93;13.93;;;;;;;;;;5037254;28;20230;-67
2022/03/04 11:48:49;;;;;;;22.50;13.80;;;;;;;;;;5036685;28;20207;-68
2022/03/04 11:51:20;;;;;;;27.63;14.57;;;;;;;;;;5028590;28;20295;-67
2022/03/04 11:54:16;;;;;;;26.00;13.83;;;;;;;;;;5018954;28;20239;-67
2022/03/04 11:56:52;;;;;;;24.17;14.07;;;;;;;;;;5018851;28;20787;-67
2022/03/04 11:59:21;;;;;;;25.93;14.67;;;;;;;;;;5018888;28;20239;-66
2022/03/04 12:01:49;;;;;;;23.97;14.03;;;;;;;;;;5029725;28;20239;-66
2022/03/04 12:04:18;;;;;;;34.03;14.53;;;;;;;;;;5027691;28;20196;-67
2022/03/04 12:07:00;;;;;;;23.93;13.67;;;;;;;;;;5036458;28;20258;-66
2022/03/04 12:09:30;;;;;;;39.63;15.33;;;;;;;;;;5035593;28;20203;-66
2022/03/04 12:12:13;;;;;;;27.27;14.03;;;;;;;;;;5037614;28;20335;-67
2022/03/04 12:14:41;;;;;;;29.47;15.00;;;;;;;;;;5032834;28;20207;-66
2022/03/04 12:17:10;;;;;;;25.33;14.50;;;;;;;;;;5032294;28;20224;-67
2022/03/04 12:19:38;;;;;;;22.63;13.67;;;;;;;;;;5034620;28;20227;-66
2022/03/04 12:22:07;;;;;;;19.83;12.17;;;;;;;;;;5034850;28;20200;-67
2022/03/04 12:24:36;;;;;;;20.63;12.53;;;;;;;;;;5034599;28;20290;-70
2022/03/04 12:27:04;;;;;;;26.77;12.57;;;;;;;;;;5034279;28;20263;-71
2022/03/04 12:29:46;;;;;;;25.10;13.57;;;;;;;;;;5037138;28;20210;-71
2022/03/04 12:32:14;;;;;;;23.93;13.90;;;;;;;;;;5035815;28;20689;-71
2022/03/04 12:34:49;;;;;;;23.90;13.53;;;;;;;;;;5035317;28;20239;-71
2022/03/04 12:37:17;;;;;;;19.97;13.20;;;;;;;;;;5034509;28;20722;-71
2022/03/04 12:39:50;;;;;;;17.50;11.67;;;;;;;;;;5033824;28;20644;-71
2022/03/04 12:42:19;;;;;;;18.57;11.97;;;;;;;;;;5032422;28;20223;-73
2022/03/04 12:44:48;;;;;;;20.37;11.67;;;;;;;;;;5037505;28;20210;-71
2022/03/04 12:47:17;;;;;;;22.63;11.50;;;;;;;;;;5037086;28;20326;-72
2022/03/04 12:49:46;;;;;;;21.60;10.90;;;;;;;;;;5034842;28;20250;-72
2022/03/04 12:52:18;;;;;;;17.73;10.93;;;;;;;;;;5032428;28;20212;-71
2022/03/04 12:54:46;;;;;;;18.40;10.83;;;;;;;;;;5017893;28;20216;-72
2022/03/04 12:57:14;;;;;;;17.47;10.67;;;;;;;;;;5018127;28;20247;-72
2022/03/04 12:59:45;;;;;;;21.90;11.07;;;;;;;;;;5017768;28;20657;-71
2022/03/04 13:02:15;;;;;;;18.13;10.57;;;;;;;;;;5027303;28;20677;-70
2022/03/04 13:04:56;;;;;;;22.10;10.30;;;;;;;;;;5017395;28;20208;-71
2022/03/04 13:07:24;;;;;;;15.93;8.57;;;;;;;;;;5025130;28;20383;-71
2022/03/04 13:09:54;;;;;;;13.87;8.90;;;;;;;;;;5037112;28;20629;-72
2022/03/04 13:12:22;;;;;;;17.37;8.70;;;;;;;;;;5037243;28;20281;-72
2022/03/04 13:14:50;;;;;;;15.80;10.13;;;;;;;;;;5037464;28;20296;-73
2022/03/04 13:17:20;;;;;;;16.27;10.00;;;;;;;;;;5037400;28;20250;-72
2022/03/04 13:19:49;;;;;;;17.97;9.27;;;;;;;;;;5036094;28;20235;-72
2022/03/04 13:22:18;;;;;;;16.60;10.00;;;;;;;;;;5036597;28;20263;-66
2022/03/04 13:24:47;;;;;;;18.30;10.00;;;;;;;;;;5023651;28;20295;-67
2022/03/04 13:27:16;;;;;;;16.33;9.73;;;;;;;;;;5035929;28;20653;-67
2022/03/04 13:29:45;;;;;;;15.03;9.03;;;;;;;;;;5034172;28;20259;-66
2022/03/04 13:32:14;;;;;;;16.73;8.53;;;;;;;;;;5034761;28;20214;-67
2022/03/04 13:34:44;;;;;;;16.83;9.63;;;;;;;;;;5036636;28;20234;-65
2022/03/04 13:37:12;;;;;;;14.13;9.33;;;;;;;;;;5036794;28;20771;-63
2022/03/04 13:39:41;;;;;;;17.03;9.23;;;;;;;;;;5037025;28;20239;-65
2022/03/04 13:42:21;;;;;;;13.50;8.50;;;;;;;;;;5036973;28;20698;-65
2022/03/04 13:44:57;;;;;;;16.17;9.30;;;;;;;;;;5037203;28;20290;-65
2022/03/04 13:47:29;;;;;;;12.13;8.80;;;;;;;;;;5036823;28;20572;-65
2022/03/04 13:49:59;;;;;;;12.27;8.83;;;;;;;;;;5036973;28;20243;-65
2022/03/04 13:52:27;;;;;;;14.10;9.00;;;;;;;;;;5036547;28;20683;-65
2022/03/04 13:54:58;;;;;;;13.33;8.17;;;;;;;;;;5036821;28;20250;-65
2022/03/04 13:57:33;;;;;;;15.87;9.70;;;;;;;;;;5036918;28;20261;-65
2022/03/04 14:00:02;;;;;;;14.23;9.40;;;;;;;;;;5036770;28;20755;-65
2022/03/04 14:02:37;;;;;;;15.17;9.83;;;;;;;;;;5027874;28;20642;-65
2022/03/04 14:05:08;;;;;;;14.33;9.57;;;;;;;;;;5016299;28;20710;-65
2022/03/04 14:07:46;;;;;;;13.03;9.67;;;;;;;;;;5021022;28;20240;-65
2022/03/04 14:10:15;;;;;;;12.97;8.87;;;;;;;;;;5016971;28;20212;-65
2022/03/04 14:12:44;;;;;;;10.30;7.20;;;;;;;;;;5017282;28;20322;-71
2022/03/04 14:15:13;;;;;;;12.20;7.30;;;;;;;;;;5017031;28;20240;-68
2022/03/04 14:17:48;;;;;;;12.13;6.93;;;;;;;;;;5033855;28;20659;-71
2022/03/04 14:20:17;;;;;;;10.97;6.40;;;;;;;;;;5033241;28;20283;-71
2022/03/04 14:22:46;;;;;;;10.40;6.50;;;;;;;;;;5035718;28;20290;-71
2022/03/04 14:25:15;;;;;;;10.73;6.47;;;;;;;;;;5032536;28;20323;-72
2022/03/04 14:27:44;;;;;;;13.43;6.70;;;;;;;;;;5017477;28;20303;-71
2022/03/04 14:30:13;;;;;;;11.07;5.40;;;;;;;;;;5018227;28;20266;-71
2022/03/04 14:32:41;;;;;;;9.23;5.60;;;;;;;;;;5021132;28;20295;-72
2022/03/04 14:35:09;;;;;;;10.57;5.50;;;;;;;;;;5020654;28;20299;-72
2022/03/04 14:37:39;;;;;;;10.17;6.37;;;;;;;;;;5020072;28;20247;-72